Date TemperatureHighC TemperatureAvgC TemperatureLowC DewpointHighC DewpointAvgC DewpointLowC HumidityHigh HumidityAvg HumidityLow PressureMaxhPa PressureMinhPa WindSpeedMaxKMH WindSpeedAvgKMH GustSpeedMaxKMH PrecipitationSumCM
2016-1-1 14.0 10.4 6.9 7.1 4.6 2.9 84 74 57 1026 1023 9 2 9 0.00
2016-1-2 13.8 10.8 7.9 13.3 9.7 6.6 97 93 82 1023 1007 19 4 19 1.42
2016-1-3 13.2 10.1 6.9 10.9 7.2 4.8 96 87 71 1009 1005 19 2 26 0.38
2016-1-4 13.5 10.3 7.1 10.9 8.0 4.6 96 86 75 1005 997 19 3 19 0.48
2016-1-5 14.8 11.7 8.6 12.6 9.5 7.5 95 90 80 1001 998 7 1 7 0.18
2016-1-6 10.1 7.3 4.6 8.9 6.9 3.9 96 94 87 1002 998 15 1 15 3.76
2016-1-7 10.4 7.4 4.3 9.7 7.4 3.8 97 95 89 1007 1002 15 2 15 0.76
2016-1-8 16.7 13.5 10.3 13.7 11.5 9.6 96 92 82 1010 1005 17 3 17 0.00
2016-1-9 16.3 14.6 13.0 13.7 12.6 12.1 96 90 82 1009 1005 15 3 15 0.10
2016-1-10 19.1 14.8 10.6 14.2 12.2 10.1 98 91 66 1008 1004 11 2 11 0.20
2016-1-11 16.8 14.1 11.4 13.8 11.5 5.4 97 86 62 1007 1000 27 5 27 0.76
2016-1-12 14.7 12.6 10.5 8.2 5.9 3.8 74 65 56 1011 1004 41 8 41 0.00
2016-1-13 13.9 8.4 2.9 6.4 2.9 -1.0 90 64 36 1020 1010 22 4 22 0.00
2016-1-14 12.2 7.5 2.8 11.6 6.1 1.1 97 88 70 1020 1008 13 2 13 2.13
2016-1-15 12.2 6.9 1.7 9.2 3.8 -4.9 96 76 44 1010 1007 13 2 13 0.08
2016-1-16 9.3 5.2 1.0 1.2 -3.4 -7.4 74 55 37 1015 1007 28 4 28 0.00
2016-1-17 8.8 3.2 -2.4 -2.3 -6.9 -11.9 88 54 22 1017 1014 22 3 22 0.00
2016-1-18 7.8 1.9 -3.9 -5.2 -7.7 -10.5 75 51 31 1021 1017 13 2 13 0.00
2016-1-19 9.5 4.5 -0.5 -0.4 -4.5 -7.9 84 61 44 1017 1014 9 2 10 0.00
2016-1-20 6.3 2.2 -1.9 5.1 0.9 -4.1 93 84 70 1019 1016 9 2 9 0.28
2016-1-21 12.8 7.6 2.4 7.7 4.6 1.9 97 87 69 1026 1017 10 2 10 0.05
2016-1-22 11.2 6.8 2.3 4.8 2.6 1.0 92 74 62 1032 1026 17 2 17 0.03
2016-1-23 12.4 7.4 2.4 7.4 4.6 1.1 95 85 68 1033 1030 6 1 6 0.00
2016-1-24 14.5 7.1 -0.4 5.2 3.0 -1.5 96 79 48 1036 1033 6 1 6 0.03
2016-1-25 13.8 7.9 2.1 9.8 6.2 1.4 97 91 70 1035 1032 7 1 7 0.03
2016-1-26 13.2 10.9 8.7 11.1 9.7 7.6 97 94 86 1033 1031 4 0 4 0.10
2016-1-27 15.6 11.8 8.1 12.3 10.2 7.3 97 93 73 1032 1030 7 1 7 0.05
2016-1-28 14.2 11.5 8.8 11.7 10.1 8.1 97 93 84 1031 1029 6 1 6 0.03
2016-1-29 15.8 11.8 7.9 11.7 9.7 7.2 97 92 74 1033 1031 8 1 8 0.00
2016-1-30 14.0 11.0 7.9 11.5 9.6 7.3 98 92 79 1033 1025 13 2 13 0.03
2016-1-31 17.2 13.6 10.1 12.1 9.9 9.1 96 85 62 1024 1018 17 3 17 0.03
2016-2-1 19.1 13.6 8.1 12.7 10.1 6.9 96 82 61 1028 1021 9 2 9 0.00
2016-2-2 15.1 13.1 11.1 12.4 11.2 10.3 96 92 79 1028 1024 11 3 11 0.03
2016-2-3 14.5 10.6 6.7 11.5 9.4 3.8 97 88 60 1024 1013 32 3 32 0.43
2016-2-4 14.1 8.1 1.9 5.4 0.9 -4.4 92 64 28 1025 1016 19 3 19 0.03
2016-2-5 15.6 8.6 1.7 9.6 5.2 0.7 96 86 60 1029 1023 11 2 11 0.00
2016-2-6 14.2 9.7 5.3 9.8 7.6 4.4 97 85 71 1031 1024 15 3 15 0.03
2016-2-7 13.7 11.9 10.2 11.0 9.8 7.7 92 88 81 1024 1011 26 7 26 0.15
2016-2-8 15.2 12.2 9.2 11.4 9.9 7.7 95 87 73 1021 1013 17 3 17 0.00
2016-2-9 14.2 11.9 9.6 11.8 9.6 5.2 93 87 66 1020 997 32 6 32 0.41
2016-2-10 12.8 10.7 8.7 11.9 4.8 1.7 95 67 53 1006 996 43 9 43 0.30
2016-2-11 13.8 9.0 4.3 7.0 3.9 -0.3 93 74 41 1010 1006 15 2 15 0.56
2016-2-12 15.4 10.6 5.8 12.0 6.8 3.1 95 82 51 1009 998 19 2 19 0.74
2016-2-13 14.8 9.9 4.9 9.7 7.9 4.0 97 88 65 1000 997 13 1 13 0.13
2016-2-14 16.1 12.4 8.7 13.0 10.3 7.7 97 88 74 999 990 30 4 30 2.18
2016-2-15 10.8 9.8 8.8 9.9 8.1 6.6 95 90 79 1011 996 19 2 19 5.00
2016-2-16 15.8 12.7 9.6 10.6 9.2 7.2 96 86 65 1016 1010 15 3 19 3.07
2016-2-17 13.1 10.3 7.6 11.1 9.6 6.8 95 92 84 1019 1016 6 1 6 0.63
2016-2-18 13.0 8.5 4.0 7.8 5.6 3.1 96 86 56 1017 1013 19 2 19 0.03
2016-2-19 15.7 9.7 3.7 9.1 5.7 3.0 97 82 51 1020 1016 11 2 11 0.13
2016-2-20 14.1 8.8 3.5 6.6 3.7 0.3 95 77 40 1028 1020 15 1 15 0.05
2016-2-21 16.7 10.4 4.2 9.2 5.9 2.7 95 85 41 1027 1024 9 2 10 0.00
2016-2-22 16.1 12.0 7.9 12.0 9.7 7.1 96 88 76 1026 1016 17 3 17 0.13
2016-2-23 15.6 11.3 7.1 12.4 9.6 6.2 95 88 66 1017 1011 13 2 23 0.00
2016-2-24 17.1 11.6 6.1 10.6 7.8 5.3 97 85 61 1014 1012 15 2 15 0.03
2016-2-25 14.2 10.1 6.1 11.2 8.2 5.3 96 89 73 1013 1007 19 2 19 1.37
2016-2-26 14.1 9.4 4.8 10.4 7.7 4.2 97 92 74 1010 1007 11 2 11 1.93
2016-2-27 13.2 10.5 7.8 11.0 8.8 6.3 94 89 75 1008 1002 22 4 29 2.44
2016-2-28 13.4 10.7 7.8 10.4 8.6 6.8 97 90 68 1006 992 35 6 35 6.45
2016-2-29 13.7 11.0 8.3 10.9 8.3 5.5 96 92 80 1007 993 21 4 21 3.28
2016-3-1 17.1 10.7 4.2 9.8 7.3 3.4 96 79 55 1014 1007 15 2 15 0.00
2016-3-2 16.7 10.8 4.9 10.8 7.6 4.2 97 82 50 1014 999 19 2 19 0.00
2016-3-3 14.8 8.8 2.8 8.7 2.8 -3.4 93 67 29 1002 996 39 4 39 0.15
2016-3-4 14.9 7.5 0.2 6.0 2.6 -2.6 90 68 30 1008 1000 17 2 17 0.00
2016-3-5 14.2 9.6 4.9 11.1 7.8 2.9 93 84 75 1008 996 30 5 37 1.07
2016-3-6 14.0 9.3 4.7 9.0 6.0 3.3 93 83 61 1003 999 22 3 22 0.48
2016-3-7 12.9 8.2 3.6 6.1 4.2 2.7 95 76 54 1006 1000 19 3 19 0.48
2016-3-8 10.7 7.4 4.2 7.2 4.4 2.3 94 87 73 1008 1004 19 2 19 0.20
2016-3-9 11.5 8.1 4.6 6.7 5.1 2.4 90 81 69 1008 1005 17 3 21 0.13
2016-3-10 15.8 11.8 7.7 5.9 4.1 3.1 76 65 43 1011 1005 19 5 19 0.00
2016-3-11 16.1 11.8 7.6 7.0 5.6 3.9 84 65 52 1015 1010 32 8 32 0.03
2016-3-12 16.2 12.2 8.2 6.8 4.9 3.2 72 62 48 1015 1013 32 7 32 0.00
2016-3-13 15.5 12.1 8.7 5.9 4.3 3.5 73 63 49 1017 1012 32 4 32 0.00
2016-3-14 14.6 10.7 6.9 5.2 3.5 1.0 69 61 48 1020 1016 26 4 26 0.00
2016-3-15 15.1 9.6 4.0 3.5 1.5 -0.9 79 60 37 1020 1013 13 2 13 0.00
2016-3-16 14.6 9.6 4.5 7.2 3.3 0.1 80 67 47 1021 1012 19 4 34 0.00
2016-3-17 16.8 13.3 9.8 7.2 5.8 4.4 72 62 51 1021 1019 32 7 32 0.00
2016-3-18 18.3 11.7 5.1 8.2 5.2 2.7 91 65 45 1019 1015 15 2 15 0.00
2016-3-19 18.4 10.7 3.1 9.3 5.8 2.2 95 77 48 1019 1016 17 2 17 0.00
2016-3-20 15.6 10.1 4.6 10.7 8.2 3.4 96 84 68 1020 1015 11 2 11 0.03
2016-3-21 20.9 16.0 11.1 10.3 8.8 6.0 94 70 42 1016 1004 15 3 15 0.00
2016-3-22 21.6 17.0 12.4 10.9 8.8 7.6 73 62 49 1007 990 48 8 48 0.00
2016-3-23 14.4 10.8 7.1 7.5 3.3 0.2 81 59 46 1003 989 47 8 47 0.18
2016-3-24 17.8 11.6 5.3 2.7 0.1 -2.3 72 47 28 1015 1000 24 4 24 0.00
2016-3-25 16.5 9.8 3.1 6.6 1.8 -2.4 89 56 31 1018 1015 15 2 15 0.00
2016-3-26 19.1 12.7 6.2 9.9 7.1 3.9 91 70 52 1019 1016 15 2 15 0.00
2016-3-27 17.4 10.2 2.9 11.8 7.7 1.4 92 76 51 1019 1015 15 3 15 0.00
2016-3-28 18.4 14.4 10.4 13.6 10.5 7.2 94 83 55 1016 1014 15 2 15 0.03
2016-3-29 20.0 14.4 8.9 13.3 10.7 7.8 94 82 50 1020 1015 15 2 15 0.00
2016-3-30 20.2 15.9 11.6 12.9 11.5 9.8 92 79 57 1022 1019 13 3 13 0.00
2016-3-31 20.7 16.0 11.3 11.6 9.6 7.3 90 67 51 1020 1013 22 4 22 0.00
2016-4-1 21.5 17.7 14.0 14.0 12.2 9.6 87 74 60 1016 1012 13 3 13 0.00
2016-4-2 24.6 17.3 10.0 12.3 9.3 7.4 88 66 42 1016 1014 17 2 17 0.00
2016-4-3 23.1 16.5 9.9 11.7 9.0 6.4 79 63 42 1018 1015 11 2 11 0.00
2016-4-4 23.6 18.7 13.7 12.0 9.8 8.1 73 60 41 1016 1011 19 4 19 0.00
2016-4-5 24.3 17.6 10.8 10.1 7.9 4.7 78 56 30 1012 1010 19 4 19 0.00
2016-4-6 26.7 17.9 9.1 12.4 8.3 5.2 82 60 30 1011 1008 13 2 13 0.00
2016-4-7 25.1 17.1 9.0 13.9 9.3 5.3 83 65 36 1009 1003 9 2 9 0.00
2016-4-8 17.5 14.3 11.1 13.7 10.9 7.0 88 79 68 1003 1001 11 2 11 0.08
2016-4-9 14.2 10.2 6.2 9.7 7.9 5.0 94 81 70 1007 1002 19 3 19 0.30
2016-4-10 19.7 12.2 4.7 10.9 7.4 3.9 97 77 45 1013 1007 19 2 19 0.00
2016-4-11 20.8 12.8 4.7 11.7 7.9 3.7 95 72 43 1016 1013 14 2 19 0.00
2016-4-12 21.8 16.7 11.6 13.7 11.8 10.1 92 79 59 1016 1013 19 3 19 0.00
2016-4-13 23.1 17.1 11.2 13.4 11.3 7.2 91 72 47 1013 1008 13 2 13 0.00
2016-4-14 21.9 15.4 8.8 12.2 8.4 2.4 95 65 29 1015 1009 19 2 19 0.00
2016-4-15 23.4 15.1 6.8 11.8 7.8 4.3 86 68 30 1016 1014 17 2 17 0.00
2016-4-16 20.9 16.1 11.3 13.7 11.7 7.2 88 74 59 1015 1014 20 4 20 0.00
2016-4-17 21.1 17.8 14.4 15.7 13.9 12.3 90 80 64 1015 1013 13 3 13 0.00
2016-4-18 21.3 15.6 9.8 14.9 10.3 5.8 93 67 38 1017 1014 9 2 10 0.00
2016-4-19 21.3 15.7 10.0 10.3 7.6 4.6 80 62 37 1020 1014 26 3 26 0.00
2016-4-20 26.1 18.1 10.1 11.7 5.4 2.4 73 48 26 1023 1020 22 3 22 0.00
2016-4-21 23.1 17.9 12.7 8.1 3.9 -0.8 69 44 30 1024 1020 17 3 17 0.00
2016-4-22 21.5 16.6 11.6 12.7 9.6 6.1 89 67 45 1022 1013 13 2 13 0.00
2016-4-23 18.7 15.4 12.2 13.6 11.9 10.6 92 82 65 1014 1003 17 1 17 0.10
2016-4-24 17.2 13.9 10.7 13.7 11.6 9.3 94 88 67 1003 999 20 2 20 0.81
2016-4-25 17.1 11.3 5.6 9.5 4.2 -1.6 93 66 31 1011 1002 26 4 26 0.30
2016-4-26 19.9 12.9 5.8 9.3 5.0 2.1 83 59 33 1011 1008 19 2 19 0.00
2016-4-27 21.2 14.7 8.2 11.2 8.6 6.1 92 68 38 1012 1008 19 3 19 0.00
2016-4-28 16.2 13.7 11.2 12.6 11.2 9.5 94 86 72 1014 1011 11 1 11 0.56
2016-4-29 22.4 15.7 9.0 12.3 9.4 7.0 94 74 47 1017 1014 9 1 23 0.03
2016-4-30 23.3 15.6 7.9 13.7 10.2 6.4 94 77 44 1017 1013 19 2 19 0.76
2016-5-1 19.2 14.8 10.4 11.3 9.6 7.8 94 76 53 1013 1009 22 3 22 1.09
2016-5-2 18.3 14.2 10.0 11.4 9.9 8.4 94 83 63 1011 1009 19 2 19 0.91
2016-5-3 24.6 17.9 11.3 12.8 9.3 7.4 83 58 40 1014 1011 22 4 22 0.00
2016-5-4 24.9 18.2 11.6 10.8 8.4 5.6 80 51 31 1017 1015 17 3 17 0.00
2016-5-5 22.9 17.9 12.9 11.9 8.1 5.1 76 53 41 1019 1017 19 3 19 0.23
2016-5-6 22.6 16.4 10.3 10.4 8.3 6.7 83 58 37 1019 1015 20 3 20 0.00
2016-5-7 24.3 16.4 8.6 10.9 8.4 5.5 82 60 40 1015 1011 19 2 19 0.00
2016-5-8 21.1 15.9 10.7 13.5 11.1 8.4 88 74 53 1016 1012 7 1 8 0.00
2016-5-9 24.6 19.4 14.3 14.8 11.6 9.2 81 66 41 1017 1015 19 2 19 0.00
2016-5-10 23.9 19.3 14.8 15.8 12.8 10.4 86 71 47 1018 1011 15 2 21 0.00
2016-5-11 22.4 18.8 15.2 16.7 14.6 12.7 90 80 63 1011 1003 11 2 11 0.03
2016-5-12 21.5 16.4 11.4 15.7 12.3 9.2 96 74 48 1004 1002 17 2 17 0.23
2016-5-13 23.9 17.2 10.5 14.9 11.8 8.8 93 74 40 1003 1001 15 2 15 0.15
2016-5-14 24.4 18.7 13.1 14.4 12.5 10.9 93 68 46 1008 1002 16 2 16 0.15
2016-5-15 21.8 17.1 12.4 16.5 13.4 10.7 95 83 61 1014 1008 19 2 19 0.81
2016-5-16 22.2 17.2 12.3 14.6 12.1 10.3 95 74 49 1016 1014 10 2 13 0.30
2016-5-17 20.8 15.1 9.4 14.8 12.1 8.3 94 83 58 1017 1014 11 1 13 1.50
2016-5-18 21.8 15.3 8.7 15.2 12.1 7.7 95 78 55 1017 1014 15 2 16 0.03
2016-5-19 20.8 15.8 10.8 15.7 11.8 9.3 94 84 65 1015 1007 19 3 19 1.96
2016-5-20 23.2 16.4 9.6 12.1 10.0 7.9 91 70 43 1018 1009 28 5 29 0.00
2016-5-21 27.5 20.7 13.8 13.8 9.4 5.7 71 52 35 1019 1017 17 3 19 0.00
2016-5-22 28.4 19.1 9.7 12.6 8.9 6.1 82 54 28 1019 1014 19 2 19 0.00
2016-5-23 22.3 18.7 15.1 16.2 11.4 5.8 92 70 35 1015 1009 28 5 35 0.05
2016-5-24 21.9 16.4 11.0 13.1 11.1 8.8 87 68 53 1013 1009 19 4 21 0.00
2016-5-25 25.1 16.9 8.7 12.1 9.7 7.3 95 72 33 1016 1013 11 1 11 0.00
2016-5-26 24.7 17.9 11.1 15.8 12.0 7.3 89 68 48 1017 1015 17 2 17 0.00
2016-5-27 29.2 20.4 11.6 13.5 9.2 3.1 79 54 19 1016 1015 17 2 17 0.00
2016-5-28 29.4 21.0 12.6 14.6 11.1 8.4 79 54 29 1015 1012 13 2 13 0.00
2016-5-29 24.6 20.2 15.8 19.1 16.0 12.6 94 80 60 1012 1007 17 2 17 1.27
2016-5-30 25.7 19.4 13.1 16.4 12.7 9.1 96 70 35 1014 1011 24 2 24 0.00
2016-5-31 25.6 19.3 13.1 16.1 13.2 10.2 88 71 43 1016 1014 15 2 16 0.00
2016-6-1 23.0 18.8 14.6 16.1 13.9 11.2 91 78 53 1015 1013 13 2 13 0.71
2016-6-2 22.4 18.0 13.6 15.8 13.9 12.1 95 83 61 1015 1012 19 2 19 0.66
2016-6-3 23.2 18.3 13.4 18.1 15.0 12.1 94 84 57 1013 1011 9 1 9 0.33
2016-6-4 24.1 20.4 16.7 18.2 16.4 15.2 92 80 63 1013 1012 16 2 16 0.10
2016-6-5 26.8 20.6 14.4 17.3 14.5 8.8 96 73 35 1017 1014 14 2 14 0.10
2016-6-6 26.6 20.4 14.2 16.3 14.4 11.3 90 69 47 1019 1016 19 2 19 0.00
2016-6-7 29.1 21.4 13.7 18.7 15.6 12.8 95 75 41 1020 1017 13 2 13 0.00
2016-6-8 29.1 21.9 14.7 19.4 15.4 13.6 94 70 43 1019 1014 19 2 19 0.00
2016-6-9 24.9 20.8 16.7 18.8 17.2 15.6 96 84 62 1014 1008 13 2 13 3.30
2016-6-10 26.5 20.3 14.2 18.9 16.7 13.7 97 80 59 1012 1009 15 2 15 0.03
2016-6-11 25.4 20.8 16.3 19.2 17.6 15.3 96 83 62 1013 1011 17 2 17 0.30
2016-6-12 27.1 21.5 15.8 19.6 17.3 14.7 95 80 56 1011 1006 5 1 18 0.30
2016-6-13 26.9 21.0 15.0 18.0 15.5 13.8 93 71 51 1006 1002 8 1 23 0.00
2016-6-14 27.1 21.1 15.1 18.4 14.7 11.6 83 68 47 1003 1002 5 1 19 0.00
2016-6-15 28.2 21.4 14.7 16.8 15.1 11.6 89 66 41 1007 1003 5 1 18 0.00
2016-6-16 30.6 23.7 16.8 20.8 17.4 13.9 89 68 41 1009 1001 5 1 18 0.10
2016-6-17 26.9 20.7 14.4 14.7 12.6 9.2 85 60 34 1017 1009 3 1 14 0.10
2016-6-18 26.4 20.4 14.3 15.9 13.8 11.8 91 65 41 1018 1016 5 1 14 0.03
2016-6-19 25.3 20.2 15.1 17.3 13.8 11.2 92 73 49 1017 1013 19 3 23 0.20
2016-6-20 25.7 20.2 14.7 15.6 13.6 11.9 91 69 45 1021 1014 15 2 15 0.03
2016-6-21 29.9 21.9 13.9 17.3 13.8 11.6 90 63 36 1022 1020 19 3 19 0.00
2016-6-22 33.1 23.9 14.8 18.5 14.2 10.3 78 54 28 1021 1019 17 2 17 0.00
2016-6-23 36.4 27.1 17.9 20.1 17.1 12.8 81 57 26 1020 1016 15 0 15 0.00
2016-6-24 36.6 27.4 18.3 21.4 19.2 16.8 92 63 38 1017 1012 19 2 19 0.00
2016-6-25 35.4 27.6 19.7 19.1 16.4 12.9 87 56 30 1013 1010 22 3 22 0.00
2016-6-26 34.6 26.5 18.4 17.9 15.2 10.9 79 50 30 1013 1011 9 1 16 0.00
2016-6-27 31.3 24.6 17.9 18.3 15.7 11.3 86 60 36 1015 1013 19 3 19 0.00
2016-6-28 32.3 23.8 15.2 19.5 16.1 12.4 93 66 31 1016 1014 17 2 18 0.00
2016-6-29 32.3 24.3 16.3 18.6 15.5 13.8 86 62 35 1016 1014 13 2 16 0.00
2016-6-30 31.7 24.7 17.7 18.7 15.4 11.8 85 60 30 1017 1014 13 1 13 0.00
2016-7-1 31.6 24.7 17.8 20.5 17.7 14.6 89 61 36 1017 1016 7 1 13 0.00
2016-7-2 33.2 25.1 16.9 20.9 17.7 15.3 91 65 39 1017 1014 19 2 19 0.00
2016-7-3 34.0 26.6 19.2 19.6 17.2 14.9 86 59 34 1015 1013 15 2 15 0.00
2016-7-4 34.5 25.9 17.2 19.3 16.8 13.4 82 58 36 1016 1014 9 0 9 0.00
2016-7-5 33.8 27.0 20.1 22.2 19.2 17.3 85 64 44 1015 1013 13 1 13 0.00
2016-7-6 32.9 26.3 19.8 22.6 19.2 16.9 92 65 43 1014 1012 19 2 19 0.00
2016-7-7 34.9 27.2 19.4 21.1 18.4 15.6 88 61 34 1017 1014 17 2 17 0.00
2016-7-8 32.9 25.8 18.6 21.9 18.3 14.8 90 66 41 1019 1017 15 2 15 0.00
2016-7-9 34.9 27.2 19.3 21.8 18.9 15.1 93 67 35 1019 1015 17 1 19 0.00
2016-7-10 34.5 27.1 19.7 22.5 19.6 16.2 85 62 41 1016 1013 13 1 13 0.00
2016-7-11 35.0 27.5 20.0 22.4 19.3 15.0 89 64 32 1015 1012 13 2 13 0.00
2016-7-12 33.8 26.3 18.8 23.3 18.8 14.6 90 64 32 1013 1010 15 2 15 0.00
2016-7-13 33.1 27.3 21.4 23.3 19.9 10.9 94 71 38 1011 1008 15 3 15 0.08
2016-7-14 28.6 23.6 18.5 16.6 12.8 8.5 79 53 32 1011 1008 19 4 19 0.00
2016-7-15 24.6 21.4 18.2 13.5 10.7 7.3 74 53 36 1017 1008 37 7 37 0.00
2016-7-16 28.7 22.3 16.0 13.3 9.9 7.3 71 46 28 1019 1016 19 4 19 0.00
2016-7-17 30.2 21.8 13.3 13.8 10.4 7.3 78 50 25 1021 1019 19 3 19 0.00
2016-7-18 33.3 23.4 13.4 11.9 9.9 7.1 74 45 21 1021 1019 22 2 22 0.00
2016-7-19 34.7 24.3 14.0 12.7 9.4 7.0 74 43 21 1020 1017 19 2 19 0.00
2016-7-20 35.5 25.4 15.4 17.5 12.5 6.0 80 42 19 1017 1015 19 2 23 0.00
2016-7-21 35.2 25.2 15.3 14.6 11.0 8.6 67 42 23 1017 1014 13 2 13 0.00
2016-7-22 33.3 25.6 17.9 19.3 15.9 11.1 78 58 35 1015 1013 17 2 17 0.00
2016-7-23 33.6 28.3 23.0 20.1 16.6 12.7 73 56 32 1016 1013 19 3 19 0.05
2016-7-24 32.4 26.0 19.6 19.9 17.5 14.8 90 63 40 1016 1013 20 2 20 1.70
2016-7-25 32.4 25.7 18.9 20.8 18.7 16.5 91 70 41 1015 1012 19 2 19 0.08
2016-7-26 34.4 26.6 18.9 21.2 19.3 17.4 92 66 42 1014 1013 17 1 17 0.00
2016-7-27 34.7 26.9 19.2 20.9 18.8 15.9 91 64 38 1014 1012 17 2 19 0.00
2016-7-28 32.6 25.9 19.2 22.0 19.3 16.3 86 69 40 1014 1012 13 2 13 0.00
2016-7-29 33.1 26.6 20.0 22.4 20.4 17.7 94 71 48 1015 1013 13 2 13 0.00
2016-7-30 34.0 26.1 18.2 19.8 17.8 15.5 85 61 37 1015 1013 19 2 19 0.00
2016-7-31 33.4 26.1 18.8 22.0 19.3 16.9 90 70 39 1015 1011 17 2 17 0.00
2016-8-1 31.5 27.0 22.4 22.1 20.2 18.0 87 69 46 1014 1010 20 3 20 0.00
2016-8-2 33.7 26.6 19.6 19.9 18.0 15.8 88 64 36 1016 1014 19 3 19 0.00
2016-8-3 34.1 26.7 19.3 21.4 18.8 16.6 86 62 41 1015 1012 20 2 20 0.00
2016-8-4 35.5 27.1 18.6 18.7 16.5 14.2 76 54 31 1014 1012 19 2 19 0.00
2016-8-5 31.3 25.3 19.3 21.7 18.7 15.8 90 76 47 1012 1010 17 2 17 0.13
2016-8-6 30.2 23.2 16.1 17.4 13.8 11.8 89 55 37 1019 1012 19 4 19 0.00
2016-8-7 31.2 26.0 20.9 15.7 13.4 10.9 63 47 34 1020 1018 24 5 24 0.00
2016-8-8 33.7 26.6 19.4 16.2 13.1 10.6 66 44 29 1019 1015 17 2 18 0.00
2016-8-9 32.8 24.6 16.3 19.3 14.2 12.1 77 53 33 1016 1011 19 2 19 0.00
2016-8-10 29.5 24.4 19.3 20.8 17.9 13.7 87 71 39 1012 1009 17 3 17 0.00
2016-8-11 28.9 22.8 16.6 17.1 13.3 7.1 90 58 32 1021 1012 19 3 24 0.00
2016-8-12 29.8 22.4 15.1 13.3 9.9 6.6 63 40 28 1023 1020 19 4 19 0.00
2016-8-13 32.7 25.1 17.4 13.6 10.3 5.8 63 42 30 1023 1020 30 3 30 0.00
2016-8-14 33.7 25.7 17.7 19.7 13.5 11.2 74 49 27 1022 1019 11 2 11 0.00
2016-8-15 33.7 24.7 15.8 19.9 14.9 12.9 87 58 30 1021 1016 20 2 20 0.00
2016-8-16 32.6 24.1 15.6 17.2 13.3 11.1 79 54 28 1018 1014 22 3 22 0.00
2016-8-17 32.3 24.1 15.8 18.9 14.7 11.9 83 60 37 1014 1010 19 2 19 0.00
2016-8-18 30.3 24.7 19.1 20.3 18.7 17.3 90 79 51 1011 1010 11 1 11 0.00
2016-8-19 31.3 25.7 20.1 21.9 20.4 18.1 93 80 54 1014 1010 11 2 14 0.00
2016-8-20 31.1 25.4 19.7 21.3 19.8 18.2 93 73 49 1015 1013 15 2 15 0.00
2016-8-21 32.1 25.7 19.4 22.6 20.1 14.6 92 77 54 1015 1013 19 2 19 0.00
2016-8-22 31.6 25.1 18.6 17.3 11.9 7.1 80 44 26 1022 1015 22 4 26 0.00
2016-8-23 32.4 23.7 15.1 12.4 10.2 8.0 66 43 28 1023 1018 22 3 23 0.00
2016-8-24 33.6 25.4 17.2 13.5 11.8 10.0 65 40 24 1020 1016 19 3 23 0.00
2016-8-25 35.2 29.2 23.1 17.6 13.7 10.8 63 43 26 1017 1014 24 4 24 0.00
2016-8-26 33.9 26.8 19.6 17.7 14.4 11.6 71 48 30 1018 1016 17 3 17 0.00
2016-8-27 33.6 25.3 17.0 17.1 14.4 12.0 74 52 32 1020 1018 13 2 13 0.00
2016-8-28 32.8 24.6 16.4 19.7 14.5 10.3 81 57 27 1020 1017 19 2 19 0.00
2016-8-29 32.1 24.9 17.8 19.9 17.5 16.2 94 68 39 1019 1014 19 2 19 0.00
2016-8-30 32.3 25.4 18.6 21.8 17.8 14.9 86 72 35 1018 1015 15 2 15 0.00
2016-8-31 30.1 24.2 18.3 21.5 18.3 16.9 93 77 50 1019 1016 13 2 13 0.25
2016-9-1 33.2 24.8 16.3 18.7 16.7 14.1 94 60 32 1020 1017 17 2 17 0.03
2016-9-2 33.6 24.9 16.3 19.4 15.8 13.4 84 60 36 1019 1016 20 2 20 0.00
2016-9-3 33.8 25.2 16.5 18.3 14.8 12.3 83 57 29 1018 1016 17 2 17 0.00
2016-9-4 32.0 24.4 16.8 20.4 17.1 13.2 86 67 38 1018 1015 19 2 19 0.00
2016-9-5 31.4 26.3 21.2 21.6 20.1 17.4 91 73 49 1015 1009 15 2 15 0.00
2016-9-6 30.4 23.4 16.3 17.4 11.8 9.4 84 51 28 1016 1013 22 4 22 0.08
2016-9-7 27.2 21.1 14.9 16.1 14.6 12.4 86 65 48 1016 1013 19 4 26 0.00
2016-9-8 30.8 25.4 20.1 18.4 15.4 13.6 72 56 37 1013 1010 22 4 22 0.00
2016-9-9 31.6 24.4 17.3 16.3 15.1 13.2 81 58 38 1013 1011 19 2 19 0.00
2016-9-10 31.3 24.9 18.4 16.6 15.1 13.2 74 51 37 1013 1011 19 3 19 0.00
2016-9-11 31.7 24.9 18.1 17.8 15.8 13.4 76 56 37 1016 1013 19 2 19 0.00
2016-9-12 31.5 25.7 19.9 19.5 16.6 14.4 81 61 38 1017 1015 17 2 17 0.00
2016-9-13 31.0 24.0 17.1 21.7 17.2 14.1 93 74 43 1016 1013 26 2 26 2.08
2016-9-14 28.7 22.7 16.6 20.5 18.2 15.6 95 80 52 1015 1013 13 2 13 0.03
2016-9-15 27.0 22.4 17.9 21.4 18.9 16.3 94 83 67 1017 1013 17 2 17 0.20
2016-9-16 24.9 21.2 17.5 21.8 19.5 16.7 96 91 80 1015 1011 15 2 15 2.44
2016-9-17 26.7 21.2 15.6 18.5 16.2 14.1 96 79 47 1013 1011 13 2 13 0.03
2016-9-18 21.9 18.4 14.9 17.1 15.2 14.0 95 88 67 1013 1008 15 2 15 5.97
2016-9-19 25.2 19.1 12.9 17.3 15.2 12.3 97 81 56 1011 1009 19 2 19 0.03
2016-9-20 27.2 20.7 14.2 18.4 15.7 13.3 96 77 47 1012 1011 15 2 15 0.03
2016-9-21 27.0 21.8 16.7 17.8 15.7 13.8 89 77 47 1014 1011 19 2 19 0.08
2016-9-22 26.6 20.2 16.6 15.3 12.8 11.1 83 65 40 1022 1014 11 2 11 0.00
2016-9-23 26.7 19.2 13.5 15.1 12.2 9.3 89 66 42 1024 1021 17 1 17 0.00
2016-9-24 27.1 19.6 14.9 15.9 12.7 8.9 90 68 34 1024 1022 15 2 15 0.00
2016-9-26 27.2 18.9 11.9 12.9 10.8 8.2 89 63 31 1020 1017 17 2 17 0.00
2016-9-27 26.9 20.3 12.8 16.2 10.9 7.3 80 56 35 1025 1019 17 2 17 0.00
2016-9-28 26.7 20.4 14.6 14.1 10.4 7.2 79 54 36 1028 1025 23 3 23 0.00
2016-9-29 26.3 18.2 12.5 16.4 12.8 9.7 92 73 50 1028 1024 15 1 15 0.00
2016-9-30 25.7 18.3 13.4 17.2 14.5 12.3 95 80 54 1024 1020 13 2 13 0.03
2016-10-1 24.2 20.2 15.2 17.7 16.6 13.6 94 81 60 1020 1013 15 3 15 1.47
2016-10-2 25.4 20.1 16.9 20.1 17.4 16.0 97 86 61 1017 1012 19 2 19 2.29
2016-10-3 25.2 19.9 14.3 19.9 15.8 12.4 96 79 49 1020 1016 19 2 19 0.03
2016-10-4 25.4 19.1 13.2 12.5 8.2 3.8 91 53 26 1020 1017 17 2 17 0.00
2016-10-5 24.8 17.1 11.3 11.1 9.2 6.6 81 62 34 1020 1014 19 2 19 0.00
2016-10-6 19.7 16.3 13.1 13.0 11.0 9.3 85 71 63 1014 1010 19 3 19 0.23
2016-10-7 21.3 15.2 12.0 13.0 11.7 9.9 94 81 55 1015 1007 19 3 19 3.68
2016-10-8 23.1 16.2 11.9 16.6 12.6 10.2 95 80 55 1016 1013 17 2 17 1.04
2016-10-9 22.2 17.1 11.5 14.8 13.1 10.9 96 78 56 1017 1014 17 2 17 0.05
2016-10-10 19.6 16.8 13.3 11.7 10.9 10.1 88 69 56 1014 1013 15 2 15 0.05
2016-10-11 12.8 11.4 9.7 7.8 6.4 4.5 82 72 60 1011 1008 28 3 28 0.05
2016-10-12 19.7 12.4 4.2 7.2 5.7 2.8 92 66 37 1016 1011 19 1 19 0.00
2016-10-13 16.5 12.8 10.2 11.8 8.9 4.6 88 77 66 1016 1010 19 4 19 0.28
2016-10-14 25.1 18.8 13.9 19.2 15.5 11.8 97 82 64 1013 1006 33 5 34 10.54
2016-10-15 22.9 17.1 13.9 18.6 15.8 13.3 98 93 73 1019 1010 11 1 11 3.63
2016-10-16 23.1 16.2 11.2 16.8 13.8 10.8 98 87 59 1023 1019 10 1 10 0.03
2016-10-17 22.3 16.9 11.2 16.3 14.1 10.6 97 84 59 1024 1022 8 1 8 0.03
2016-10-18 20.3 15.9 13.3 16.7 14.4 12.6 96 91 79 1022 1020 6 0 6 0.00
2016-10-19 21.8 16.0 11.9 16.3 13.7 11.3 97 87 60 1021 1014 15 2 15 0.05
2016-10-20 22.4 16.0 12.7 15.1 12.9 11.3 95 83 58 1014 1010 15 2 15 0.00
2016-10-21 20.9 15.2 10.2 13.3 11.2 8.8 94 79 52 1013 1009 15 2 15 0.00
2016-10-22 20.7 13.7 8.5 12.8 10.0 7.6 96 80 49 1016 1013 13 1 13 0.03
2016-10-23 20.6 15.2 12.4 16.3 11.8 9.6 87 80 69 1018 1014 17 2 17 0.00
2016-10-24 22.9 19.9 18.2 18.2 16.8 15.2 92 83 72 1021 1018 19 3 19 0.00
2016-10-25 24.0 20.8 18.2 20.3 18.2 15.3 95 86 77 1023 1021 17 2 17 0.00
2016-10-26 22.4 20.1 16.6 20.4 19.1 15.6 96 94 87 1022 1017 23 1 23 1.02
2016-10-27 21.2 17.1 11.9 15.7 11.1 5.8 94 69 47 1026 1017 21 3 23 0.13
2016-10-28 13.8 12.9 12.3 6.7 6.4 5.7 68 65 60 1027 1026 13 3 13 0.00
2016-11-1 11.9 11.6 11.1 11.3 10.8 10.3 96 95 94 1023 1023 3 0 3 0.00
2016-11-2 20.0 15.4 11.2 15.2 13.7 10.6 96 90 73 1023 1014 6 1 10 0.03
2016-11-3 21.8 16.7 14.3 14.3 12.5 10.3 94 77 59 1017 1011 6 1 18 0.03
2016-11-4 20.7 15.1 11.8 14.9 12.1 9.2 96 82 68 1019 1017 8 0 10 0.00
2016-11-5 18.8 17.2 14.0 17.4 16.1 13.2 97 93 88 1017 1004 6 0 18 2.62
2016-11-6 20.0 16.1 11.8 17.5 13.6 3.0 97 87 50 1004 997 14 1 32 7.57
2016-11-7 15.8 12.2 8.2 10.2 8.1 5.7 88 76 62 1007 1003 6 0 21 0.00
2016-11-8 14.1 9.9 6.0 9.3 7.4 4.7 94 85 69 1006 1004 8 0 14 0.13
2016-11-9 14.1 8.8 3.4 8.6 5.9 2.1 93 83 57 1010 1006 5 0 10 0.84
2016-11-10 16.1 11.2 6.6 11.1 8.6 5.8 96 85 66 1014 1007 6 1 14 0.38
2016-11-11 15.1 10.4 4.3 11.6 8.8 3.7 96 90 79 1014 1008 16 1 34 4.24
2016-11-12 14.7 8.3 4.2 6.9 3.7 1.4 96 75 41 1021 1010 10 1 16 0.03
2016-11-13 13.8 9.3 4.1 8.6 5.6 2.1 89 78 63 1022 1020 5 0 11 0.00
2016-11-14 14.0 11.2 9.4 7.7 5.7 3.8 81 69 59 1025 1021 11 2 23 0.00
2016-11-15 14.6 10.1 5.4 5.7 4.2 2.2 80 67 53 1028 1025 13 2 21 0.00
2016-11-16 16.1 8.9 3.3 8.7 5.3 1.2 93 79 58 1028 1022 3 0 14 0.05
2016-11-17 14.3 12.2 10.2 12.4 9.6 7.9 90 82 72 1022 1019 8 1 11 0.00
2016-11-18 18.2 16.0 13.9 16.8 14.8 12.4 96 93 89 1019 1015 6 1 13 0.00
2016-11-19 17.1 15.2 13.4 15.8 13.9 12.9 97 94 86 1015 1012 10 1 16 0.20
2016-11-20 18.4 15.4 12.4 15.7 13.9 12.0 98 94 83 1017 1014 6 1 11 0.33
2016-11-21 17.7 15.8 13.9 15.6 14.3 13.3 97 94 86 1017 1016 10 1 13 0.13
2016-11-22 18.6 16.6 14.7 15.4 14.1 13.2 93 88 81 1020 1016 10 1 14 0.00
2016-11-23 19.2 16.6 14.3 15.6 13.7 12.4 91 85 79 1021 1019 6 1 18 0.00
2016-11-24 18.0 16.6 15.1 14.3 13.1 11.7 93 82 73 1020 1012 13 2 19 0.43
2016-11-25 19.3 14.0 8.7 13.8 11.8 7.9 96 89 61 1015 1011 10 1 24 0.58
2016-11-26 16.8 11.7 6.5 12.3 8.7 6.0 98 90 73 1018 1015 3 0 8 0.05
2016-11-27 17.3 11.3 5.4 11.3 7.3 4.3 96 87 63 1016 1011 5 0 8 0.03
2016-11-28 15.2 10.2 5.2 9.3 6.1 -1.6 97 79 50 1016 1009 21 2 37 0.03
2016-11-29 8.2 6.0 3.7 -1.9 -3.8 -4.9 58 51 42 1031 1016 18 3 35 0.00
2016-11-30 13.7 6.2 -1.2 1.6 -2.4 -5.4 86 62 34 1033 1029 18 1 24 0.00
2016-12-1 13.1 6.3 -0.4 8.8 4.9 -2.2 96 84 74 1029 1022 5 0 11 0.00
2016-12-2 15.0 12.5 9.9 10.4 8.8 8.1 90 84 66 1022 1016 6 0 13 0.00
2016-12-3 15.9 12.8 9.6 9.7 8.3 7.2 87 80 59 1021 1017 6 0 6 0.00
2016-12-4 16.0 12.2 8.3 9.9 8.2 6.7 90 79 64 1025 1021 5 1 11 0.05
2016-12-5 17.2 12.1 7.1 9.6 7.6 4.9 87 75 54 1027 1025 6 1 13 0.00
2016-12-6 17.8 11.4 5.1 7.8 5.4 3.1 88 71 46 1028 1025 8 1 11 0.00
2016-12-7 15.9 9.7 3.5 5.3 2.6 -0.6 89 64 39 1034 1028 14 2 27 0.00
2016-12-8 16.1 9.3 2.7 7.2 2.4 -1.4 94 68 42 1036 1034 5 0 10 0.00
2016-12-9 16.1 10.3 4.4 11.5 6.7 3.6 97 90 68 1035 1031 6 0 10 0.03
2016-12-10 13.6 9.4 5.3 11.8 9.7 4.6 97 93 88 1031 1027 2 0 8 0.03
2016-12-11 14.6 12.2 9.9 12.7 11.2 9.3 96 92 87 1027 1017 5 0 10 0.00
2016-12-12 16.8 10.7 4.7 10.8 7.5 1.0 96 81 48 1023 1015 10 0 14 0.00
2016-12-13 15.8 9.8 3.7 9.8 4.9 0.1 94 69 46 1028 1023 10 1 14 0.38
2016-12-14 11.0 10.1 9.2 10.2 9.5 8.1 95 93 90 1027 1025 6 1 10 0.81
2016-12-15 15.3 10.8 6.3 11.4 8.8 4.1 97 90 76 1026 1024 5 0 10 0.18
2016-12-16 12.2 8.6 5.1 5.2 3.4 1.1 90 73 59 1032 1025 23 3 34 0.00
2016-12-17 11.6 6.7 1.8 2.2 0.9 -1.2 86 65 51 1035 1032 18 2 26 0.00
2016-12-18 12.3 6.7 1.1 6.2 2.0 -1.6 92 80 62 1035 1028 3 0 6 0.00
2016-12-19 10.0 8.1 6.2 5.6 4.4 3.0 88 78 64 1028 1021 24 2 31 0.30
2016-12-20 13.0 10.9 8.8 9.4 7.6 4.9 90 80 70 1021 1017 21 4 31 1.45
2016-12-21 17.4 13.9 10.4 10.6 8.7 5.1 88 73 62 1027 1020 13 2 24 0.33
2016-12-22 16.5 9.8 3.0 8.5 4.3 1.5 92 76 49 1030 1027 3 0 5 0.00
2016-12-23 17.7 10.1 2.6 10.1 5.2 1.3 94 82 56 1031 1029 5 0 10 0.00
2016-12-24 16.0 8.8 1.7 10.7 5.5 0.7 96 88 67 1031 1027 6 0 10 0.03
2016-12-25 14.2 9.8 5.4 11.9 8.4 4.7 96 93 83 1028 1025 5 0 6 0.03
2016-12-26 15.3 9.6 3.9 12.0 7.5 3.4 98 93 79 1031 1028 3 0 6 0.03
2016-12-27 18.6 11.6 4.4 12.5 8.2 0.2 97 88 56 1033 1028 3 0 10 0.03
2016-12-28 15.2 9.4 3.6 7.5 3.6 -0.3 96 71 41 1035 1030 8 0 11 0.00
2016-12-29 10.3 4.3 -1.8 8.8 -0.7 -4.1 97 64 39 1037 1029 24 2 39 0.00
2016-12-30 10.7 4.2 -2.3 -0.4 -2.9 -4.4 90 67 37 1037 1033 11 1 16 0.00
2016-12-31 14.0 6.4 -1.1 -0.2 -4.8 -9.6 79 55 25 1033 1028 3 0 8 0.00
2017-1-1 13.7 6.1 -1.6 7.1 1.2 -5.4 81 71 53 1028 1024 8 0 11 0.00